Terminal Aerodrome Forecast
Issued by NWS Grand Rapids, MI

Home | Current Version | Previous Version | Text Only | Print | Product List | Glossary On
Versions: 1 2 3 4 5 6 7 8 9 10 11 12 13 14 15 16 17 18 19 20 21 22 23 24 25 26 27 28 29 30 31 32 33 34
453
FTUS43 KGRR 172331 AAA
TAFGRR
TAF AMD
KGRR 172331Z 1800/1824 08005KT 3SM BR SCT012 OVC160
     FM180100 12004KT 5SM BR SCT015 BKN150
     FM180300 16005KT 2SM BR OVC003
     FM180700 21005KT 1 1/2SM -DZ BR OVC003
     FM181400 23006KT 1/4SM FG OVC003
     FM181600 24007KT 3SM BR OVC006=

USA.gov is the U.S. government's official web portal to all federal, state and local government web resources and services.